createdAt,value
2023-03-25T00:01:20.172Z,9.85
2023-03-25T00:03:51.214Z,9.80
2023-03-25T00:06:20.313Z,9.79
2023-03-25T00:08:48.616Z,9.77
2023-03-25T00:11:16.867Z,9.76
2023-03-25T00:13:45.041Z,9.73
2023-03-25T00:16:13.278Z,9.69
2023-03-25T00:18:41.677Z,9.65
2023-03-25T00:21:12.692Z,9.64
2023-03-25T00:23:41.747Z,9.63
2023-03-25T00:26:11.979Z,9.58
2023-03-25T00:28:40.212Z,9.56
2023-03-25T00:31:13.805Z,9.53
2023-03-25T00:33:42.738Z,9.50
2023-03-25T00:36:13.994Z,9.47
2023-03-25T00:38:43.765Z,9.45
2023-03-25T00:41:18.385Z,9.42
2023-03-25T00:43:46.668Z,9.40
2023-03-25T00:46:15.066Z,9.34
2023-03-25T00:48:43.944Z,9.31
2023-03-25T00:51:13.985Z,9.27
2023-03-25T00:53:42.208Z,9.23
2023-03-25T00:56:12.440Z,9.22
2023-03-25T00:58:40.966Z,9.21
2023-03-25T01:01:15.787Z,9.20
2023-03-25T01:03:44.960Z,9.19
2023-03-25T01:06:16.905Z,9.20
2023-03-25T01:08:45.186Z,9.16
2023-03-25T01:11:22.144Z,9.13
2023-03-25T01:13:51.774Z,9.09
2023-03-25T01:16:20.088Z,9.08
2023-03-25T01:18:49.123Z,9.06
2023-03-25T01:21:17.673Z,9.04
2023-03-25T01:23:46.204Z,9.01
2023-03-25T01:26:14.566Z,8.98
2023-03-25T01:28:43.771Z,8.96
2023-03-25T01:31:16.635Z,8.93
2023-03-25T01:33:44.964Z,8.91
2023-03-25T01:36:13.232Z,8.87
2023-03-25T01:38:42.864Z,8.84
2023-03-25T01:41:11.296Z,8.79
2023-03-25T01:43:39.845Z,8.75
2023-03-25T01:46:14.556Z,8.70
2023-03-25T01:48:45.212Z,8.65
2023-03-25T01:51:21.282Z,8.62
2023-03-25T01:53:53.581Z,8.59
2023-03-25T01:56:31.007Z,8.57
2023-03-25T01:59:06.505Z,8.55
2023-03-25T02:01:36.986Z,8.54
2023-03-25T02:04:10.249Z,8.51
2023-03-25T02:06:54.165Z,8.49
2023-03-25T02:09:26.315Z,8.48
2023-03-25T02:11:55.126Z,8.46
2023-03-25T02:14:27.483Z,8.43
2023-03-25T02:17:01.717Z,8.39
2023-03-25T02:20:09.534Z,8.34
2023-03-25T02:22:42.208Z,8.29
2023-03-25T02:25:36.382Z,8.25
2023-03-25T02:28:41.967Z,8.20
2023-03-25T02:31:38.167Z,8.14
2023-03-25T02:34:29.448Z,8.10
2023-03-25T02:37:06.967Z,8.07
2023-03-25T02:39:47.556Z,8.04
2023-03-25T02:42:15.953Z,8.00
2023-03-25T02:44:53.577Z,7.97
2023-03-25T02:47:26.835Z,7.95
2023-03-25T02:50:01.157Z,7.92
2023-03-25T02:52:38.390Z,7.91
2023-03-25T02:55:10.725Z,7.92
2023-03-25T02:57:42.336Z,7.90
2023-03-25T03:00:16.024Z,7.90
2023-03-25T03:03:04.841Z,7.91
2023-03-25T03:05:49.105Z,7.92
2023-03-25T03:08:31.294Z,7.93
2023-03-25T03:11:14.685Z,7.93
2023-03-25T03:13:45.732Z,7.92
2023-03-25T03:16:33.672Z,7.91
2023-03-25T03:19:24.449Z,7.91
2023-03-25T03:22:17.858Z,7.91
2023-03-25T03:25:22.233Z,7.91
2023-03-25T03:28:09.317Z,7.90
2023-03-25T03:30:49.582Z,7.88
2023-03-25T03:33:41.264Z,7.87
2023-03-25T03:36:16.414Z,7.85
2023-03-25T03:38:51.589Z,7.85
2023-03-25T03:41:24.097Z,7.85
2023-03-25T03:43:58.527Z,7.83
2023-03-25T03:46:32.450Z,7.82
2023-03-25T03:49:06.246Z,7.80
2023-03-25T03:51:38.634Z,7.79
2023-03-25T03:54:14.195Z,7.76
2023-03-25T03:57:12.166Z,7.72
2023-03-25T03:59:52.552Z,7.69
2023-03-25T04:02:28.566Z,7.65
2023-03-25T04:05:01.005Z,7.63
2023-03-25T04:07:43.779Z,7.58
2023-03-25T04:10:29.966Z,7.54
2023-03-25T04:13:01.972Z,7.50
2023-03-25T04:15:30.387Z,7.47
2023-03-25T04:17:58.644Z,7.46
2023-03-25T04:20:30.087Z,7.45
2023-03-25T04:22:58.279Z,7.42
2023-03-25T04:25:26.788Z,7.42
2023-03-25T04:27:59.185Z,7.41
2023-03-25T04:30:29.397Z,7.39
2023-03-25T04:32:57.829Z,7.40
2023-03-25T04:35:26.300Z,7.40
2023-03-25T04:37:54.668Z,7.41
2023-03-25T04:40:26.035Z,7.43
2023-03-25T04:42:57.053Z,7.44
2023-03-25T04:45:26.361Z,7.46
2023-03-25T04:47:56.934Z,7.48
2023-03-25T04:50:29.942Z,7.54
2023-03-25T04:53:00.586Z,7.61
2023-03-25T04:55:30.270Z,7.70
2023-03-25T04:57:58.523Z,7.79
2023-03-25T05:00:27.410Z,7.87
2023-03-25T05:02:56.859Z,7.95
2023-03-25T05:05:25.765Z,8.04
2023-03-25T05:07:58.537Z,8.13
2023-03-25T05:10:29.807Z,8.24
2023-03-25T05:13:03.736Z,8.37
2023-03-25T05:15:35.778Z,8.51
2023-03-25T05:18:04.104Z,8.66
2023-03-25T05:20:35.333Z,8.83
2023-03-25T05:23:04.821Z,9.03
2023-03-25T05:25:34.616Z,9.22
2023-03-25T05:28:06.161Z,9.35
2023-03-25T05:30:39.443Z,9.47
2023-03-25T05:33:13.879Z,9.59
2023-03-25T05:35:43.297Z,9.73
2023-03-25T05:38:12.777Z,9.85
2023-03-25T05:40:41.140Z,9.92
2023-03-25T05:43:09.340Z,9.99
2023-03-25T05:45:37.677Z,10.05
2023-03-25T05:48:06.714Z,10.10
2023-03-25T05:50:37.138Z,10.19
2023-03-25T05:53:05.679Z,10.22
2023-03-25T05:55:33.922Z,10.24
2023-03-25T05:58:07.397Z,10.25
2023-03-25T06:00:37.261Z,10.20
2023-03-25T06:03:08.728Z,10.12
2023-03-25T06:05:40.123Z,10.04
2023-03-25T06:08:08.741Z,10.00
2023-03-25T06:10:37.001Z,10.00
2023-03-25T06:13:05.273Z,10.04
2023-03-25T06:15:39.614Z,10.05
2023-03-25T06:18:07.867Z,10.08
2023-03-25T06:20:36.148Z,10.16
2023-03-25T06:23:04.266Z,10.24
2023-03-25T06:25:32.572Z,10.39
2023-03-25T06:28:03.766Z,10.60
2023-03-25T06:30:32.113Z,10.89
2023-03-25T06:33:03.466Z,11.12
2023-03-25T06:35:32.200Z,11.25
2023-03-25T06:38:01.454Z,11.29
2023-03-25T06:40:41.558Z,11.38
2023-03-25T06:43:09.817Z,11.52
2023-03-25T06:45:38.040Z,11.65
2023-03-25T06:48:15.975Z,11.83
2023-03-25T06:50:45.676Z,12.06
2023-03-25T06:53:13.881Z,12.22
2023-03-25T06:55:42.076Z,12.19
2023-03-25T06:58:10.515Z,12.17
2023-03-25T07:00:38.846Z,12.17
2023-03-25T07:03:07.084Z,12.19
2023-03-25T07:05:35.445Z,12.22
2023-03-25T07:08:03.643Z,12.31
2023-03-25T07:10:32.600Z,12.43
2023-03-25T07:13:00.750Z,12.63
2023-03-25T07:15:29.037Z,12.86
2023-03-25T07:17:57.302Z,13.00
2023-03-25T07:20:25.708Z,12.99
2023-03-25T07:22:55.427Z,12.94
2023-03-25T07:25:23.760Z,12.93
2023-03-25T07:27:51.951Z,13.13
2023-03-25T07:30:20.610Z,13.43
2023-03-25T07:32:48.922Z,13.74
2023-03-25T07:35:17.090Z,14.11
2023-03-25T07:37:45.703Z,14.39
2023-03-25T07:40:13.913Z,14.67
2023-03-25T07:42:42.213Z,15.09
2023-03-25T07:45:44.459Z,15.19
2023-03-25T07:48:24.619Z,15.16
2023-03-25T07:50:53.046Z,15.18
2023-03-25T07:53:21.302Z,15.25
2023-03-25T07:55:52.512Z,15.63
2023-03-25T07:58:21.072Z,16.02
2023-03-25T08:00:49.261Z,16.08
2023-03-25T08:03:17.533Z,15.99
2023-03-25T08:05:47.989Z,16.02
2023-03-25T08:08:16.572Z,15.92
2023-03-25T08:10:46.638Z,15.90
2023-03-25T08:13:15.237Z,15.76
2023-03-25T08:15:44.180Z,15.70
2023-03-25T08:18:12.394Z,15.63
2023-03-25T08:20:41.356Z,15.63
2023-03-25T08:23:11.153Z,15.70
2023-03-25T08:25:43.819Z,15.76
2023-03-25T08:28:11.985Z,15.97
2023-03-25T08:30:40.242Z,16.58
2023-03-25T08:33:10.268Z,16.96
2023-03-25T08:35:39.468Z,17.20
2023-03-25T08:38:07.879Z,17.65
2023-03-25T08:40:36.707Z,17.76
2023-03-25T08:43:06.890Z,17.57
2023-03-25T08:45:36.710Z,17.40
2023-03-25T08:48:05.093Z,17.36
2023-03-25T08:50:33.292Z,17.45
2023-03-25T08:53:01.511Z,17.61
2023-03-25T08:55:29.707Z,17.76
2023-03-25T08:58:01.681Z,18.33
2023-03-25T09:00:29.853Z,19.20
2023-03-25T09:02:59.373Z,19.69
2023-03-25T09:05:27.768Z,19.86
2023-03-25T09:07:56.300Z,20.07
2023-03-25T09:10:24.570Z,20.25
2023-03-25T09:12:53.076Z,20.34
2023-03-25T09:15:21.725Z,20.53
2023-03-25T09:17:50.083Z,20.99
2023-03-25T09:20:18.942Z,21.64
2023-03-25T09:22:47.469Z,22.42
2023-03-25T09:25:15.759Z,22.93
2023-03-25T09:27:43.936Z,23.37
2023-03-25T09:30:13.159Z,23.83
2023-03-25T09:32:41.734Z,24.17
2023-03-25T09:35:10.144Z,24.50
2023-03-25T09:37:38.315Z,24.73
2023-03-25T09:40:08.389Z,25.16
2023-03-25T09:42:48.421Z,25.30
2023-03-25T09:45:29.732Z,25.12
2023-03-25T09:48:19.114Z,25.25
2023-03-25T09:50:48.301Z,25.51
2023-03-25T09:53:22.516Z,25.81
2023-03-25T09:55:51.824Z,25.86
2023-03-25T09:58:40.188Z,26.10
2023-03-25T10:01:27.025Z,26.46
2023-03-25T10:04:02.811Z,26.85
2023-03-25T10:06:36.052Z,26.82
2023-03-25T10:09:21.042Z,26.94
2023-03-25T10:12:02.885Z,26.81
2023-03-25T10:14:55.963Z,26.20
2023-03-25T10:17:56.900Z,25.40
2023-03-25T10:20:50.033Z,25.06
2023-03-25T10:23:33.299Z,25.38
2023-03-25T10:26:10.540Z,25.68
2023-03-25T10:28:44.395Z,26.15
2023-03-25T10:31:18.176Z,26.65
2023-03-25T10:33:54.469Z,27.30
2023-03-25T10:36:34.087Z,27.38
2023-03-25T10:39:11.126Z,27.43
2023-03-25T10:41:43.562Z,27.38
2023-03-25T10:44:12.262Z,27.22
2023-03-25T10:46:48.611Z,26.83
2023-03-25T10:49:22.938Z,26.57
2023-03-25T10:51:57.685Z,26.61
2023-03-25T10:54:33.100Z,26.90
2023-03-25T10:57:08.568Z,27.23
2023-03-25T10:59:53.582Z,27.66
2023-03-25T11:02:28.568Z,28.05
2023-03-25T11:05:01.574Z,28.32
2023-03-25T11:07:34.941Z,28.06
2023-03-25T11:10:09.308Z,27.62
2023-03-25T11:12:43.185Z,26.86
2023-03-25T11:15:26.983Z,25.99
2023-03-25T11:18:08.345Z,25.55
2023-03-25T11:20:46.080Z,24.94
2023-03-25T11:23:19.852Z,24.22
2023-03-25T11:25:48.490Z,23.52
2023-03-25T11:28:31.820Z,23.02
2023-03-25T11:31:33.704Z,22.74
2023-03-25T11:34:10.863Z,22.65
2023-03-25T11:36:55.455Z,22.46
2023-03-25T11:39:23.577Z,22.55
2023-03-25T11:41:52.580Z,23.17
2023-03-25T11:44:31.047Z,23.89
2023-03-25T11:47:06.374Z,24.33
2023-03-25T11:49:38.746Z,24.48
2023-03-25T11:52:20.174Z,24.38
2023-03-25T11:54:49.165Z,24.52
2023-03-25T11:57:22.823Z,24.75
2023-03-25T12:00:01.633Z,24.78
2023-03-25T12:02:41.287Z,24.94
2023-03-25T12:05:12.503Z,25.19
2023-03-25T12:07:52.351Z,25.08
2023-03-25T12:10:35.415Z,24.58
2023-03-25T12:13:14.940Z,24.05
2023-03-25T12:15:51.115Z,23.59
2023-03-25T12:18:57.645Z,23.35
2023-03-25T12:21:34.931Z,23.15
2023-03-25T12:24:38.915Z,23.49
2023-03-25T12:27:16.585Z,23.81
2023-03-25T12:30:08.098Z,24.21
2023-03-25T12:32:40.771Z,24.12
2023-03-25T12:35:38.609Z,24.36
2023-03-25T12:38:29.192Z,24.87
2023-03-25T12:41:35.032Z,25.41
2023-03-25T12:44:35.286Z,25.71
2023-03-25T12:47:26.048Z,25.78
2023-03-25T12:50:13.635Z,25.98
2023-03-25T12:53:11.965Z,26.02
2023-03-25T12:55:50.908Z,26.13
2023-03-25T12:58:55.624Z,26.69
2023-03-25T13:01:42.566Z,27.15
2023-03-25T13:04:10.824Z,27.32
2023-03-25T13:06:46.339Z,27.44
2023-03-25T13:09:55.202Z,27.37
2023-03-25T13:12:23.373Z,27.43
2023-03-25T13:15:05.169Z,27.46
2023-03-25T13:17:50.074Z,27.06
2023-03-25T13:20:19.938Z,26.19
2023-03-25T13:22:53.345Z,25.23
2023-03-25T13:25:43.053Z,24.68
2023-03-25T13:28:16.308Z,24.17
2023-03-25T13:30:47.313Z,23.86
2023-03-25T13:33:33.292Z,23.64
2023-03-25T13:36:06.032Z,23.38
2023-03-25T13:38:57.705Z,23.17
2023-03-25T13:41:38.963Z,23.07
2023-03-25T13:44:31.813Z,22.89
2023-03-25T13:47:32.279Z,22.74
2023-03-25T13:50:00.469Z,22.58
2023-03-25T13:52:37.488Z,22.53
2023-03-25T13:55:23.022Z,22.45
2023-03-25T13:58:25.440Z,22.39
2023-03-25T14:01:21.145Z,22.31
2023-03-25T14:04:22.877Z,22.24
2023-03-25T14:06:54.360Z,22.12
2023-03-25T14:09:43.116Z,22.02
2023-03-25T14:12:37.433Z,21.93
2023-03-25T14:15:11.698Z,21.85
2023-03-25T14:17:40.937Z,21.74
2023-03-25T14:20:12.605Z,21.65
2023-03-25T14:22:43.742Z,21.57
2023-03-25T14:25:33.386Z,21.50
2023-03-25T14:28:05.394Z,21.37
2023-03-25T14:30:34.390Z,21.28
2023-03-25T14:33:04.255Z,21.18
2023-03-25T14:35:35.100Z,21.08
2023-03-25T14:38:06.854Z,21.01
2023-03-25T14:41:01.429Z,20.92
2023-03-25T14:43:40.631Z,20.89
2023-03-25T14:46:13.211Z,20.84
2023-03-25T14:48:54.777Z,20.80
2023-03-25T14:51:26.093Z,20.74
2023-03-25T14:54:03.607Z,20.68
2023-03-25T14:56:38.183Z,20.62
2023-03-25T14:59:15.809Z,20.53
2023-03-25T15:01:45.967Z,20.43
2023-03-25T15:04:39.355Z,20.34
2023-03-25T15:07:18.375Z,20.23
2023-03-25T15:09:52.743Z,20.15
2023-03-25T15:12:26.597Z,20.04
2023-03-25T15:15:03.200Z,19.92
2023-03-25T15:17:49.593Z,19.80
2023-03-25T15:20:23.956Z,19.70
2023-03-25T15:23:34.893Z,19.61
2023-03-25T15:26:05.180Z,19.48
2023-03-25T15:29:14.778Z,19.41
2023-03-25T15:32:07.660Z,19.31
2023-03-25T15:34:54.365Z,19.22
2023-03-25T15:37:45.711Z,19.06
2023-03-25T15:40:32.369Z,18.99
2023-03-25T15:43:06.402Z,18.85
2023-03-25T15:45:34.612Z,18.71
2023-03-25T15:48:45.858Z,18.56
2023-03-25T15:51:37.373Z,18.36
2023-03-25T15:54:05.907Z,18.17
2023-03-25T15:56:40.257Z,18.07
2023-03-25T15:59:30.444Z,17.96
2023-03-25T16:02:02.947Z,17.85
2023-03-25T16:04:47.935Z,17.73
2023-03-25T16:07:19.987Z,17.58
2023-03-25T16:09:49.430Z,17.42
2023-03-25T16:12:21.829Z,17.26
2023-03-25T16:14:52.574Z,17.11
2023-03-25T16:17:27.440Z,16.99
2023-03-25T16:19:57.226Z,16.89
2023-03-25T16:22:29.746Z,16.76
2023-03-25T16:25:14.369Z,16.61
2023-03-25T16:27:45.828Z,16.48
2023-03-25T16:30:33.340Z,16.38
2023-03-25T16:33:08.645Z,16.26
2023-03-25T16:35:41.267Z,16.13
2023-03-25T16:38:15.194Z,16.00
2023-03-25T16:40:44.038Z,15.86
2023-03-25T16:43:27.506Z,15.78
2023-03-25T16:46:02.219Z,15.76
2023-03-25T16:48:42.755Z,15.75
2023-03-25T16:51:22.895Z,15.76
2023-03-25T16:53:56.187Z,15.78
2023-03-25T16:56:28.170Z,15.81
2023-03-25T16:59:05.338Z,15.80
2023-03-25T17:01:39.689Z,15.78
2023-03-25T17:04:19.522Z,15.77
2023-03-25T17:06:56.689Z,15.76
2023-03-25T17:09:34.352Z,15.77
2023-03-25T17:12:08.045Z,15.78
2023-03-25T17:14:38.179Z,15.80
2023-03-25T17:17:21.665Z,15.80
2023-03-25T17:19:52.661Z,15.76
2023-03-25T17:22:28.399Z,15.68
2023-03-25T17:24:59.023Z,15.57
2023-03-25T17:27:34.506Z,15.51
2023-03-25T17:30:28.785Z,15.47
2023-03-25T17:33:34.304Z,15.44
2023-03-25T17:36:08.174Z,15.45
2023-03-25T17:38:42.057Z,15.46
2023-03-25T17:41:11.596Z,15.46
2023-03-25T17:43:49.077Z,15.46
2023-03-25T17:46:23.172Z,15.46
2023-03-25T17:48:55.350Z,15.45
2023-03-25T17:51:29.454Z,15.43
2023-03-25T17:53:57.878Z,15.40
2023-03-25T17:56:28.356Z,15.37
2023-03-25T17:59:05.799Z,15.37
2023-03-25T18:01:35.419Z,15.37
2023-03-25T18:04:04.623Z,15.37
2023-03-25T18:06:32.844Z,15.33
2023-03-25T18:09:01.054Z,15.29
2023-03-25T18:11:29.313Z,15.25
2023-03-25T18:13:57.571Z,15.21
2023-03-25T18:16:26.081Z,15.18
2023-03-25T18:18:54.379Z,15.15
2023-03-25T18:21:23.633Z,15.13
2023-03-25T18:23:52.574Z,15.12
2023-03-25T18:26:21.037Z,15.11
2023-03-25T18:28:49.242Z,15.11
2023-03-25T18:31:18.003Z,15.11
2023-03-25T18:33:51.420Z,15.10
2023-03-25T18:36:19.706Z,15.10
2023-03-25T18:38:48.122Z,15.10
2023-03-25T18:41:17.621Z,15.10
2023-03-25T18:43:45.876Z,15.09
2023-03-25T18:46:15.191Z,15.08
2023-03-25T18:48:43.482Z,15.07
2023-03-25T18:51:13.837Z,15.06
2023-03-25T18:53:42.116Z,15.05
2023-03-25T18:56:10.662Z,15.04
2023-03-25T18:58:38.884Z,15.02
2023-03-25T19:01:10.288Z,14.99
2023-03-25T19:03:39.220Z,14.96
2023-03-25T19:06:10.892Z,14.88
2023-03-25T19:08:40.616Z,14.83
2023-03-25T19:11:19.839Z,14.79
2023-03-25T19:13:51.209Z,14.75
2023-03-25T19:16:19.857Z,14.72
2023-03-25T19:18:48.930Z,14.67
2023-03-25T19:21:19.512Z,14.60
2023-03-25T19:23:48.578Z,14.51
2023-03-25T19:26:16.882Z,14.41
2023-03-25T19:28:45.065Z,14.35
2023-03-25T19:31:17.247Z,14.28
2023-03-25T19:33:45.488Z,14.23
2023-03-25T19:36:16.635Z,14.21
2023-03-25T19:38:45.182Z,14.19
2023-03-25T19:41:15.793Z,14.17
2023-03-25T19:43:43.926Z,14.17
2023-03-25T19:46:12.384Z,14.16
2023-03-25T19:48:40.530Z,14.15
2023-03-25T19:51:09.001Z,14.12
2023-03-25T19:53:37.366Z,14.07
2023-03-25T19:56:06.088Z,13.99
2023-03-25T19:58:35.004Z,13.91
2023-03-25T20:01:04.226Z,13.82
2023-03-25T20:03:33.812Z,13.74
2023-03-25T20:06:03.073Z,13.63
2023-03-25T20:08:32.234Z,13.54
2023-03-25T20:11:01.388Z,13.46
2023-03-25T20:13:29.723Z,13.39
2023-03-25T20:15:58.293Z,13.33
2023-03-25T20:18:26.567Z,13.26
2023-03-25T20:20:55.184Z,13.19
2023-03-25T20:23:23.440Z,13.13
2023-03-25T20:25:52.620Z,13.06
2023-03-25T20:28:20.876Z,12.98
2023-03-25T20:30:49.127Z,12.92
2023-03-25T20:33:18.853Z,12.87
2023-03-25T20:35:47.145Z,12.82
2023-03-25T20:38:16.085Z,12.77
2023-03-25T20:40:45.210Z,12.73
2023-03-25T20:43:15.018Z,12.69
2023-03-25T20:45:43.976Z,12.62
2023-03-25T20:48:12.325Z,12.56
2023-03-25T20:50:40.837Z,12.52
2023-03-25T20:53:09.246Z,12.48
2023-03-25T20:55:37.608Z,12.44
2023-03-25T20:58:06.418Z,12.42
2023-03-25T21:00:35.214Z,12.38
2023-03-25T21:03:03.739Z,12.36
2023-03-25T21:05:32.720Z,12.36
2023-03-25T21:08:00.922Z,12.34
2023-03-25T21:10:29.142Z,12.33
2023-03-25T21:12:57.491Z,12.31
2023-03-25T21:15:26.381Z,12.29
2023-03-25T21:17:54.584Z,12.26
2023-03-25T21:20:24.106Z,12.25
2023-03-25T21:22:52.754Z,12.12
2023-03-25T21:25:21.231Z,12.23
2023-03-25T21:27:49.815Z,12.20
2023-03-25T21:30:18.127Z,12.19
2023-03-25T21:32:46.383Z,12.19
2023-03-25T21:35:15.300Z,12.17
2023-03-25T21:37:44.484Z,12.15
2023-03-25T21:40:13.976Z,12.12
2023-03-25T21:42:43.266Z,12.10
2023-03-25T21:45:14.034Z,12.09
2023-03-25T21:47:43.814Z,12.08
2023-03-25T21:50:14.231Z,12.07
2023-03-25T21:52:48.803Z,12.05
2023-03-25T21:55:17.710Z,12.04
2023-03-25T21:57:47.820Z,12.02
2023-03-25T22:00:18.121Z,11.99
2023-03-25T22:02:47.675Z,11.96
2023-03-25T22:05:17.459Z,11.92
2023-03-25T22:07:45.987Z,11.88
2023-03-25T22:10:14.408Z,11.86
2023-03-25T22:12:42.758Z,11.83
2023-03-25T22:15:12.058Z,11.78
2023-03-25T22:17:40.553Z,11.74
2023-03-25T22:20:10.406Z,11.67
2023-03-25T22:22:38.586Z,11.61
2023-03-25T22:25:08.294Z,11.56
2023-03-25T22:27:37.220Z,11.53
2023-03-25T22:30:08.058Z,11.48
2023-03-25T22:32:36.719Z,11.44
2023-03-25T22:35:05.524Z,11.41
2023-03-25T22:37:37.090Z,11.37
2023-03-25T22:40:08.851Z,11.33
2023-03-25T22:42:37.234Z,11.30
2023-03-25T22:45:06.634Z,11.26
2023-03-25T22:47:35.186Z,11.21
2023-03-25T22:50:03.611Z,11.18
2023-03-25T22:52:31.785Z,11.17
2023-03-25T22:54:59.998Z,11.15
2023-03-25T22:57:28.525Z,11.11
2023-03-25T22:59:56.664Z,11.06
2023-03-25T23:02:24.949Z,11.01
2023-03-25T23:04:53.294Z,10.96
2023-03-25T23:07:21.631Z,10.92
2023-03-25T23:09:49.753Z,10.90
2023-03-25T23:12:23.232Z,10.88
2023-03-25T23:14:55.657Z,10.87
2023-03-25T23:17:25.602Z,10.85
2023-03-25T23:19:53.800Z,10.82
2023-03-25T23:22:22.425Z,10.79
2023-03-25T23:24:50.790Z,10.76
2023-03-25T23:27:18.937Z,10.74
2023-03-25T23:29:47.267Z,10.72
2023-03-25T23:32:16.660Z,10.67
2023-03-25T23:34:45.554Z,10.64
2023-03-25T23:37:13.803Z,10.62
2023-03-25T23:39:42.226Z,10.59
2023-03-25T23:42:10.521Z,10.56
2023-03-25T23:44:38.761Z,10.55
2023-03-25T23:47:07.014Z,10.53
2023-03-25T23:49:38.545Z,10.50
2023-03-25T23:52:11.743Z,10.46
2023-03-25T23:54:40.652Z,10.43
2023-03-25T23:57:08.953Z,10.38
2023-03-25T23:59:37.301Z,10.34
